Aérodrome :
LOGIN :

S'inscrire | Disclaimer

   EN    FR    IT 

 










Légende :    VFR   VFR Marginal   IFR   IFR Intensif   IFR Très Intensif
Visi : 
Plafond : 
>= 8 km
>= 3000ft
5 à 8 km
1000 à 3000 ft
1500m à 5 km
500 à 1000 ft
800 à 1500m
200 à 500 ft
< 800m
< 200 ft
Symboles :   Orages  Brouillard  Fortes neiges  Fortes précipitations  Vent > 20 kt
SIGMETs :   Divers  Orages  Givrage  Turbulence  Onde Orograph.  Cendres Volcan.







- Altitude de l'aérodrome : 656 ft
- Code IATA : CMN


GMMN - Casablanca Mohammed V

DERNIER METAR :
  • 211330Z 24010KT 210V290 9999 BKN020 SCT100 19/12 Q1010 NOSIG

METARs EXPIRÉS :
  • 211300Z 24007KT 200V280 9999 BKN016 SCT100 18/12 Q1010 NOSIG
  • 211230Z 25009KT 210V280 9999 BKN016 SCT100 18/12 Q1010 NOSIG
  • 211200Z 26009KT 9999 BKN016 SCT100 17/09 Q1010 NOSIG
  • 211130Z 28011KT 9999 BKN016 SCT100 17/12 Q1011 NOSIG
  • 211100Z /////KT 9999 BKN016 SCT100 17/12 Q1011 NOSIG

TAF TAF GMMN
Valide du 21 à 12h jusqu'au 22 à 18h UTC


211100Z 2112/2218 26008KT 9999 BKN016 SCT100
TEMPO 2114/2120 32017KT
PROB30
TEMPO 2113/2116 5000 RA
BECMG 2116/2118 SCT016
BECMG 2120/2123 20010KT 7000 SCT013
Pas de NOTAMs connus pour ce terrain.
1 SIGMET publié pour la FIR Casablanca (GMMM) :
 
Orages noyés dans la masse
GMMM SIGMET 02 VALID 211055/211455 GMMC
GMMM CASABLANCA FIR EMBD TS FCST N OF LINE N3530 W00245 - N3345 W00 334 - N3351 W00639 - N3543 W00712 TOP FL280 STNR INTSF=



MET'MAP, la Météo Aéronautique d'un coup d'oeil ! - Copyright ORBIFLY Décembre 2007 - Disclaimer

ORBIFLY MET'MAP TEAM :

Programmation & Développement : Alexandra Zaïnal
Conception & Développement : Baudouin d'Aumeries
Co-Programmation & Développement : Marc-Olivier Méhu
Soutien technique & logistique : Manuel Goepfert

Contact : metmap@orbifly.com




SOURCES & CREDITS :

   NOAA